Aérodrome :
LOGIN :

S'inscrire | Disclaimer

   EN    FR    IT 

 










Légende :    VFR   VFR Marginal   IFR   IFR Intensif   IFR Très Intensif
Visi : 
Plafond : 
>= 8 km
>= 3000ft
5 à 8 km
1000 à 3000 ft
1500m à 5 km
500 à 1000 ft
800 à 1500m
200 à 500 ft
< 800m
< 200 ft
Symboles :   Orages  Brouillard  Fortes neiges  Fortes précipitations  Vent > 20 kt
SIGMETs :   Divers  Orages  Givrage  Turbulence  Onde Orograph.  Cendres Volcan.






- Altitude de l'aérodrome : 1017 ft


LFSL - Brive Souillac

DERNIER METAR :
  • 261130Z AUTO 29015KT 9999 SCT043 BKN052 BKN078 07/M01 Q1016 TEMPO 30015G25KT BECMG SCT015TCU

METARs EXPIRÉS :
  • 261100Z AUTO 29014KT 260V330 9999 FEW040 BKN066 BKN082 07/M01 Q1016 TEMPO 30015G25KT BECMG SCT015TCU
  • 261030Z AUTO 29015KT 230V320 9999 BKN035 BKN070 BKN090 07/00 Q1016 TEMPO 30015G25KT BECMG SCT015TCU
  • 261000Z AUTO 29010KT 240V330 CAVOK 07/01 Q1015 TEMPO 30015G25KT 4000 SHRA BECMG SCT015TCU
  • 260930Z AUTO 29012KT 240V310 CAVOK 06/02 Q1015 TEMPO 30015G25KT 4000 SHRA BECMG SCT015TCU
  • 260900Z AUTO 29011KT CAVOK 05/02 Q1015 TEMPO 30015G25KT 4000 SHRA BKN008 SCT015TCU FEW020CB
  • 260830Z AUTO 29010KT 250V310 9999 FEW042/// SCT054/// BKN076/// ///TCU 05/02 Q1015 TEMPO 30015G25KT 4000 SHRA BKN008 SCT015TCU FEW020CB

TAF TAF LFSL
Valide du 26 à 09h jusqu'au 26 à 18h UTC


260800Z 2609/2618 30010KT 9999 BKN023
TEMPO 2609/2618 30015G25KT
TEMPO 2609/2611 4000 SHRA BKN008 SCT015TCU FEW020CB
BECMG 2611/2613 SCT015TCU
PROB40
TEMPO 2611/2618 -SHRA



MET'MAP, la Météo Aéronautique d'un coup d'oeil ! - Copyright ORBIFLY Décembre 2007 - Disclaimer

ORBIFLY MET'MAP TEAM :

Programmation & Développement : Alexandra Zaïnal
Sur une idée originale de : Baudouin d'Aumeries
Assistance à la programmation : Marc-Olivier Méhu
Soutien technique & logistique : Manuel Goepfert

Contact : metmap@orbifly.com




SOURCES & CREDITS :

   NOAA